createdAt,value
2023-04-12T00:01:07.893Z,10.50
2023-04-12T00:02:28.897Z,10.50
2023-04-12T00:03:49.558Z,10.40
2023-04-12T00:05:10.353Z,10.50
2023-04-12T00:06:32.190Z,10.50
2023-04-12T00:07:52.889Z,10.50
2023-04-12T00:09:13.291Z,10.50
2023-04-12T00:10:33.968Z,10.50
2023-04-12T00:11:54.697Z,10.50
2023-04-12T00:13:15.469Z,10.60
2023-04-12T00:14:36.315Z,10.60
2023-04-12T00:15:56.864Z,10.60
2023-04-12T00:17:17.728Z,10.60
2023-04-12T00:18:38.071Z,10.60
2023-04-12T00:19:58.563Z,10.50
2023-04-12T00:21:19.467Z,10.50
2023-04-12T00:22:41.568Z,10.50
2023-04-12T00:24:02.125Z,10.50
2023-04-12T00:25:22.737Z,10.50
2023-04-12T00:26:43.348Z,10.50
2023-04-12T00:28:04.135Z,10.50
2023-04-12T00:29:24.903Z,10.50
2023-04-12T00:30:45.533Z,10.50
2023-04-12T00:32:06.198Z,10.60
2023-04-12T00:33:26.937Z,10.50
2023-04-12T00:34:47.782Z,10.50
2023-04-12T00:36:09.405Z,10.50
2023-04-12T00:37:29.731Z,10.50
2023-04-12T00:38:51.397Z,10.50
2023-04-12T00:40:13.054Z,10.40
2023-04-12T00:41:36.612Z,10.50
2023-04-12T00:42:57.173Z,10.50
2023-04-12T00:44:17.824Z,10.50
2023-04-12T00:45:38.559Z,10.50
2023-04-12T00:46:59.687Z,10.50
2023-04-12T00:48:20.157Z,10.50
2023-04-12T00:49:40.797Z,10.50
2023-04-12T00:51:01.838Z,10.50
2023-04-12T00:52:22.417Z,10.50
2023-04-12T00:53:43.102Z,10.50
2023-04-12T00:55:06.677Z,10.50
2023-04-12T00:56:28.403Z,10.50
2023-04-12T00:57:49.089Z,10.50
2023-04-12T00:59:09.822Z,10.50
2023-04-12T01:00:30.460Z,10.50
2023-04-12T01:01:51.381Z,10.50
2023-04-12T01:03:12.361Z,10.50
2023-04-12T01:04:33.490Z,10.50
2023-04-12T01:06:04.405Z,10.50
2023-04-12T01:07:30.007Z,10.50
2023-04-12T01:08:55.759Z,10.40
2023-04-12T01:10:27.389Z,10.40
2023-04-12T01:11:55.588Z,10.40
2023-04-12T01:13:25.464Z,10.40
2023-04-12T01:14:52.090Z,10.40
2023-04-12T01:16:17.372Z,10.40
2023-04-12T01:17:42.683Z,10.40
2023-04-12T01:19:06.131Z,10.40
2023-04-12T01:20:30.053Z,10.40
2023-04-12T01:22:10.943Z,10.40
2023-04-12T01:23:54.095Z,10.40
2023-04-12T01:25:29.588Z,10.40
2023-04-12T01:26:51.073Z,10.40
2023-04-12T01:28:16.026Z,10.50
2023-04-12T01:29:36.561Z,10.40
2023-04-12T01:30:57.166Z,10.40
2023-04-12T01:32:18.925Z,10.30
2023-04-12T01:33:41.083Z,10.40
2023-04-12T01:35:02.328Z,10.30
2023-04-12T01:36:23.889Z,10.30
2023-04-12T01:37:44.324Z,10.40
2023-04-12T01:39:05.377Z,10.30
2023-04-12T01:40:27.413Z,10.30
2023-04-12T01:41:48.066Z,10.30
2023-04-12T01:43:09.670Z,10.40
2023-04-12T01:44:31.540Z,10.40
2023-04-12T01:45:52.013Z,10.40
2023-04-12T01:47:12.953Z,10.40
2023-04-12T01:48:33.493Z,10.40
2023-04-12T01:49:59.691Z,10.40
2023-04-12T01:51:27.257Z,10.30
2023-04-12T01:52:53.192Z,10.30
2023-04-12T01:54:17.691Z,10.40
2023-04-12T01:55:39.409Z,10.40
2023-04-12T01:57:02.388Z,10.30
2023-04-12T01:58:22.923Z,10.30
2023-04-12T01:59:45.752Z,10.30
2023-04-12T02:01:12.777Z,10.30
2023-04-12T02:02:34.143Z,10.30
2023-04-12T02:03:55.048Z,10.30
2023-04-12T02:05:15.525Z,10.30
2023-04-12T02:06:36.898Z,10.30
2023-04-12T02:07:57.536Z,10.30
2023-04-12T02:09:18.057Z,10.30
2023-04-12T02:10:38.710Z,10.20
2023-04-12T02:11:59.514Z,10.20
2023-04-12T02:13:20.299Z,10.30
2023-04-12T02:14:40.974Z,10.30
2023-04-12T02:16:03.183Z,10.30
2023-04-12T02:17:23.962Z,10.30
2023-04-12T02:18:44.538Z,10.30
2023-04-12T02:20:06.395Z,10.30
2023-04-12T02:21:26.643Z,10.30
2023-04-12T02:22:47.049Z,10.20
2023-04-12T02:24:07.733Z,10.20
2023-04-12T02:25:28.555Z,10.20
2023-04-12T02:26:49.059Z,10.20
2023-04-12T02:28:09.792Z,10.20
2023-04-12T02:29:30.558Z,10.30
2023-04-12T02:30:51.328Z,10.20
2023-04-12T02:32:13.520Z,10.20
2023-04-12T02:33:34.522Z,10.20
2023-04-12T02:34:54.933Z,10.20
2023-04-12T02:36:15.479Z,10.20
2023-04-12T02:37:36.196Z,10.20
2023-04-12T02:38:56.861Z,10.20
2023-04-12T02:40:17.240Z,10.20
2023-04-12T02:41:38.051Z,10.20
2023-04-12T02:42:58.748Z,10.20
2023-04-12T02:44:19.549Z,10.20
2023-04-12T02:45:40.250Z,10.20
2023-04-12T02:47:01.197Z,10.20
2023-04-12T02:48:22.983Z,10.20
2023-04-12T02:49:43.631Z,10.20
2023-04-12T02:51:05.399Z,10.20
2023-04-12T02:52:26.059Z,10.20
2023-04-12T02:53:46.929Z,10.20
2023-04-12T02:55:09.167Z,10.20
2023-04-12T02:56:29.648Z,10.20
2023-04-12T02:57:50.185Z,10.20
2023-04-12T02:59:10.863Z,10.20
2023-04-12T03:00:31.624Z,10.20
2023-04-12T03:01:52.625Z,10.10
2023-04-12T03:03:13.285Z,10.20
2023-04-12T03:04:35.872Z,10.20
2023-04-12T03:05:56.582Z,10.20
2023-04-12T03:07:17.610Z,10.20
2023-04-12T03:08:38.100Z,10.20
2023-04-12T03:09:59.064Z,10.20
2023-04-12T03:11:19.894Z,10.20
2023-04-12T03:12:40.674Z,10.20
2023-04-12T03:14:01.316Z,10.20
2023-04-12T03:15:21.968Z,10.10
2023-04-12T03:16:43.114Z,10.20
2023-04-12T03:18:03.831Z,10.20
2023-04-12T03:19:24.552Z,10.20
2023-04-12T03:20:47.775Z,10.20
2023-04-12T03:22:08.534Z,10.20
2023-04-12T03:23:29.275Z,10.20
2023-04-12T03:24:49.879Z,10.10
2023-04-12T03:26:10.830Z,10.20
2023-04-12T03:27:31.542Z,10.20
2023-04-12T03:28:52.241Z,10.30
2023-04-12T03:30:13.233Z,10.30
2023-04-12T03:31:34.088Z,10.30
2023-04-12T03:32:54.953Z,10.30
2023-04-12T03:34:15.817Z,10.20
2023-04-12T03:35:36.484Z,10.20
2023-04-12T03:36:58.220Z,10.20
2023-04-12T03:38:18.867Z,10.20
2023-04-12T03:39:39.546Z,10.30
2023-04-12T03:41:00.386Z,10.30
2023-04-12T03:42:32.179Z,10.30
2023-04-12T03:43:53.029Z,10.30
2023-04-12T03:45:13.673Z,10.20
2023-04-12T03:46:34.452Z,10.20
2023-04-12T03:47:54.993Z,10.20
2023-04-12T03:49:15.712Z,10.20
2023-04-12T03:50:36.523Z,10.20
2023-04-12T03:51:58.503Z,10.20
2023-04-12T03:53:18.914Z,10.20
2023-04-12T03:54:40.324Z,10.20
2023-04-12T03:56:00.734Z,10.20
2023-04-12T03:57:21.689Z,10.30
2023-04-12T03:58:42.330Z,10.30
2023-04-12T04:00:03.470Z,10.20
2023-04-12T04:01:23.884Z,10.20
2023-04-12T04:02:44.646Z,10.20
2023-04-12T04:04:05.665Z,10.20
2023-04-12T04:05:26.551Z,10.20
2023-04-12T04:06:47.343Z,10.10
2023-04-12T04:08:09.359Z,10.10
2023-04-12T04:09:30.239Z,10.20
2023-04-12T04:10:51.232Z,10.20
2023-04-12T04:12:11.810Z,10.20
2023-04-12T04:13:32.680Z,10.20
2023-04-12T04:14:53.264Z,10.20
2023-04-12T04:16:14.040Z,10.20
2023-04-12T04:17:34.573Z,10.20
2023-04-12T04:18:55.194Z,10.20
2023-04-12T04:20:15.922Z,10.20
2023-04-12T04:21:36.657Z,10.20
2023-04-12T04:22:56.932Z,10.20
2023-04-12T04:24:18.766Z,10.30
2023-04-12T04:25:39.510Z,10.20
2023-04-12T04:27:00.162Z,10.30
2023-04-12T04:28:20.941Z,10.20
2023-04-12T04:29:41.859Z,10.20
2023-04-12T04:31:02.657Z,10.20
2023-04-12T04:32:23.348Z,10.20
2023-04-12T04:33:43.880Z,10.20
2023-04-12T04:35:05.190Z,10.20
2023-04-12T04:36:25.792Z,10.20
2023-04-12T04:37:46.252Z,10.20
2023-04-12T04:39:06.969Z,10.20
2023-04-12T04:40:29.215Z,10.20
2023-04-12T04:41:49.374Z,10.20
2023-04-12T04:43:10.099Z,10.20
2023-04-12T04:44:31.033Z,10.20
2023-04-12T04:45:52.300Z,10.20
2023-04-12T04:47:12.926Z,10.20
2023-04-12T04:48:33.654Z,10.20
2023-04-12T04:49:54.410Z,10.20
2023-04-12T04:51:15.261Z,10.20
2023-04-12T04:52:36.275Z,10.20
2023-04-12T04:53:57.187Z,10.20
2023-04-12T04:55:18.777Z,10.20
2023-04-12T04:56:40.862Z,10.20
2023-04-12T04:58:01.480Z,10.20
2023-04-12T04:59:22.108Z,10.30
2023-04-12T05:00:42.910Z,10.30
2023-04-12T05:02:03.708Z,10.30
2023-04-12T05:03:24.297Z,10.30
2023-04-12T05:04:44.990Z,10.30
2023-04-12T05:06:06.295Z,10.40
2023-04-12T05:07:27.013Z,10.40
2023-04-12T05:08:47.860Z,10.40
2023-04-12T05:10:11.309Z,10.50
2023-04-12T05:11:31.757Z,10.50
2023-04-12T05:12:54.169Z,10.40
2023-04-12T05:14:14.995Z,10.50
2023-04-12T05:15:35.728Z,10.60
2023-04-12T05:16:56.322Z,10.60
2023-04-12T05:18:17.045Z,10.60
2023-04-12T05:19:37.681Z,10.70
2023-04-12T05:21:02.190Z,10.70
2023-04-12T05:22:22.678Z,10.70
2023-04-12T05:23:44.621Z,10.70
2023-04-12T05:25:06.319Z,10.70
2023-04-12T05:26:26.855Z,10.60
2023-04-12T05:27:49.233Z,10.60
2023-04-12T05:29:12.230Z,10.60
2023-04-12T05:30:32.877Z,10.60
2023-04-12T05:31:53.488Z,10.60
2023-04-12T05:33:14.030Z,10.70
2023-04-12T05:34:34.848Z,10.80
2023-04-12T05:35:55.610Z,10.80
2023-04-12T05:37:16.274Z,10.70
2023-04-12T05:38:36.891Z,10.70
2023-04-12T05:39:57.804Z,10.70
2023-04-12T05:41:18.217Z,10.70
2023-04-12T05:42:38.896Z,10.80
2023-04-12T05:43:59.855Z,10.80
2023-04-12T05:45:21.744Z,10.80
2023-04-12T05:46:42.489Z,10.80
2023-04-12T05:48:03.464Z,10.70
2023-04-12T05:49:24.608Z,10.70
2023-04-12T05:50:50.899Z,10.70
2023-04-12T05:52:11.751Z,10.70
2023-04-12T05:53:32.328Z,10.70
2023-04-12T05:54:53.000Z,10.70
2023-04-12T05:56:13.587Z,10.70
2023-04-12T05:57:34.170Z,10.80
2023-04-12T05:58:55.008Z,10.80
2023-04-12T06:00:16.271Z,10.80
2023-04-12T06:01:38.417Z,10.70
2023-04-12T06:02:59.081Z,10.70
2023-04-12T06:04:20.011Z,10.70
2023-04-12T06:05:40.962Z,10.80
2023-04-12T06:07:01.757Z,10.70
2023-04-12T06:08:22.615Z,10.80
2023-04-12T06:09:43.491Z,10.80
2023-04-12T06:11:04.380Z,10.80
2023-04-12T06:12:24.780Z,10.80
2023-04-12T06:13:45.442Z,10.80
2023-04-12T06:15:07.071Z,10.80
2023-04-12T06:16:27.755Z,10.70
2023-04-12T06:17:49.781Z,10.70
2023-04-12T06:19:10.590Z,10.80
2023-04-12T06:20:31.213Z,10.80
2023-04-12T06:21:52.166Z,10.80
2023-04-12T06:23:12.821Z,10.80
2023-04-12T06:24:33.452Z,10.80
2023-04-12T06:25:54.069Z,10.80
2023-04-12T06:27:14.769Z,10.90
2023-04-12T06:28:35.350Z,10.90
2023-04-12T06:29:56.928Z,10.80
2023-04-12T06:31:17.370Z,10.80
2023-04-12T06:32:38.109Z,10.80
2023-04-12T06:34:00.086Z,10.90
2023-04-12T06:35:20.875Z,10.90
2023-04-12T06:36:41.578Z,10.90
2023-04-12T06:38:02.529Z,10.90
2023-04-12T06:39:23.359Z,10.90
2023-04-12T06:40:44.175Z,10.90
2023-04-12T06:42:04.864Z,10.90
2023-04-12T06:43:25.544Z,10.90
2023-04-12T06:44:46.346Z,10.90
2023-04-12T06:46:07.264Z,10.90
2023-04-12T06:47:27.822Z,11.00
2023-04-12T06:48:48.559Z,11.00
2023-04-12T06:50:11.218Z,11.00
2023-04-12T06:51:31.609Z,11.00
2023-04-12T06:52:52.563Z,11.00
2023-04-12T06:54:14.515Z,11.00
2023-04-12T06:55:36.358Z,11.00
2023-04-12T06:56:56.916Z,11.10
2023-04-12T06:58:17.952Z,11.10
2023-04-12T06:59:38.480Z,11.10
2023-04-12T07:01:05.122Z,11.00
2023-04-12T07:02:25.717Z,11.00
2023-04-12T07:03:46.346Z,11.10
2023-04-12T07:05:07.882Z,11.10
2023-04-12T07:06:30.033Z,11.10
2023-04-12T07:07:50.509Z,11.10
2023-04-12T07:09:11.003Z,11.10
2023-04-12T07:10:31.761Z,11.00
2023-04-12T07:11:52.582Z,11.10
2023-04-12T07:13:13.385Z,11.10
2023-04-12T07:14:33.987Z,11.10
2023-04-12T07:15:54.502Z,11.20
2023-04-12T07:17:15.217Z,11.10
2023-04-12T07:18:35.742Z,11.10
2023-04-12T07:19:56.756Z,11.10
2023-04-12T07:21:17.229Z,11.10
2023-04-12T07:22:39.463Z,11.10
2023-04-12T07:24:00.248Z,11.10
2023-04-12T07:25:20.890Z,11.20
2023-04-12T07:26:41.747Z,11.20
2023-04-12T07:28:02.144Z,11.20
2023-04-12T07:29:23.096Z,11.20
2023-04-12T07:30:43.933Z,11.20
2023-04-12T07:32:04.991Z,11.20
2023-04-12T07:33:27.396Z,11.30
2023-04-12T07:34:47.962Z,11.40
2023-04-12T07:36:09.606Z,11.40
2023-04-12T07:37:30.070Z,11.50
2023-04-12T07:38:52.357Z,11.50
2023-04-12T07:40:12.996Z,11.60
2023-04-12T07:41:33.766Z,11.60
2023-04-12T07:42:54.683Z,11.60
2023-04-12T07:44:15.777Z,11.70
2023-04-12T07:45:36.812Z,11.60
2023-04-12T07:47:01.435Z,11.70
2023-04-12T07:48:22.144Z,11.70
2023-04-12T07:49:42.809Z,11.70
2023-04-12T07:51:04.131Z,11.70
2023-04-12T07:52:24.848Z,11.70
2023-04-12T07:53:45.524Z,11.70
2023-04-12T07:55:08.515Z,11.80
2023-04-12T07:56:29.154Z,11.80
2023-04-12T07:57:49.785Z,11.80
2023-04-12T07:59:10.493Z,11.70
2023-04-12T08:00:31.061Z,11.70
2023-04-12T08:01:51.975Z,11.70
2023-04-12T08:03:13.783Z,11.70
2023-04-12T08:04:34.736Z,11.70
2023-04-12T08:05:55.482Z,11.70
2023-04-12T08:07:16.036Z,11.70
2023-04-12T08:08:36.776Z,11.70
2023-04-12T08:09:57.618Z,11.70
2023-04-12T08:11:20.084Z,11.70
2023-04-12T08:12:40.761Z,11.70
2023-04-12T08:14:01.225Z,11.70
2023-04-12T08:15:21.882Z,11.80
2023-04-12T08:16:42.690Z,11.80
2023-04-12T08:18:03.771Z,11.70
2023-04-12T08:19:24.692Z,11.80
2023-04-12T08:20:45.184Z,11.80
2023-04-12T08:22:06.058Z,11.80
2023-04-12T08:23:26.799Z,11.90
2023-04-12T08:24:47.802Z,11.90
2023-04-12T08:26:09.717Z,11.90
2023-04-12T08:27:31.682Z,11.90
2023-04-12T08:28:52.550Z,11.90
2023-04-12T08:30:13.650Z,12.00
2023-04-12T08:31:34.530Z,12.00
2023-04-12T08:32:55.283Z,12.10
2023-04-12T08:34:15.967Z,12.10
2023-04-12T08:35:36.681Z,12.20
2023-04-12T08:36:57.231Z,12.20
2023-04-12T08:38:18.054Z,12.30
2023-04-12T08:39:38.876Z,12.30
2023-04-12T08:40:59.641Z,12.30
2023-04-12T08:42:20.499Z,12.40
2023-04-12T08:43:44.501Z,12.40
2023-04-12T08:45:05.787Z,12.40
2023-04-12T08:46:26.458Z,12.40
2023-04-12T08:47:46.836Z,12.50
2023-04-12T08:49:07.500Z,12.50
2023-04-12T08:50:28.447Z,12.50
2023-04-12T08:51:49.211Z,12.60
2023-04-12T08:53:10.844Z,12.60
2023-04-12T08:54:31.507Z,12.60
2023-04-12T08:55:52.353Z,12.50
2023-04-12T08:57:13.791Z,12.50
2023-04-12T08:58:34.380Z,12.50
2023-04-12T08:59:56.513Z,12.60
2023-04-12T09:01:19.687Z,12.60
2023-04-12T09:02:40.900Z,12.60
2023-04-12T09:04:06.689Z,12.60
2023-04-12T09:05:29.251Z,12.60
2023-04-12T09:06:49.829Z,12.50
2023-04-12T09:08:10.467Z,12.60
2023-04-12T09:09:51.831Z,12.60
2023-04-12T09:11:23.017Z,12.70
2023-04-12T09:12:46.703Z,12.70
2023-04-12T09:14:21.025Z,12.80
2023-04-12T09:15:50.834Z,12.90
2023-04-12T09:17:24.568Z,12.90
2023-04-12T09:18:48.844Z,12.90
2023-04-12T09:20:24.418Z,12.90
2023-04-12T09:21:53.046Z,12.80
2023-04-12T09:23:17.891Z,12.90
2023-04-12T09:24:46.867Z,13.00
2023-04-12T09:26:07.191Z,13.00
2023-04-12T09:27:27.966Z,13.10
2023-04-12T09:28:48.677Z,13.10
2023-04-12T09:30:10.412Z,13.10
2023-04-12T09:31:32.695Z,13.00
2023-04-12T09:32:53.566Z,13.00
2023-04-12T09:34:14.020Z,13.00
2023-04-12T09:35:34.684Z,13.00
2023-04-12T09:36:55.210Z,13.00
2023-04-12T09:38:16.437Z,13.00
2023-04-12T09:39:38.166Z,13.00
2023-04-12T09:41:19.689Z,13.00
2023-04-12T09:42:51.623Z,13.00
2023-04-12T09:44:28.281Z,13.00
2023-04-12T09:45:49.025Z,13.00
2023-04-12T09:47:11.392Z,13.00
2023-04-12T09:48:32.054Z,13.00
2023-04-12T09:49:52.445Z,13.00
2023-04-12T09:51:13.212Z,13.00
2023-04-12T09:52:38.658Z,13.00
2023-04-12T09:54:00.460Z,13.00
2023-04-12T09:55:22.941Z,13.00
2023-04-12T09:56:43.999Z,13.00
2023-04-12T09:58:04.763Z,13.00
2023-04-12T09:59:27.112Z,13.10
2023-04-12T10:00:48.109Z,13.10
2023-04-12T10:02:16.537Z,13.20
2023-04-12T10:03:37.414Z,13.20
2023-04-12T10:04:58.746Z,13.30
2023-04-12T10:06:19.620Z,13.30
2023-04-12T10:07:40.933Z,13.20
2023-04-12T10:09:04.187Z,13.20
2023-04-12T10:10:25.055Z,13.30
2023-04-12T10:11:45.720Z,13.30
2023-04-12T10:13:06.920Z,13.40
2023-04-12T10:14:27.984Z,13.30
2023-04-12T10:15:50.858Z,13.30
2023-04-12T10:17:13.593Z,13.30
2023-04-12T10:18:35.831Z,13.30
2023-04-12T10:19:56.754Z,13.30
2023-04-12T10:21:17.451Z,13.20
2023-04-12T10:22:39.743Z,13.20
2023-04-12T10:24:00.976Z,13.20
2023-04-12T10:25:24.042Z,13.20
2023-04-12T10:26:44.899Z,13.20
2023-04-12T10:28:14.701Z,13.40
2023-04-12T10:29:35.732Z,13.50
2023-04-12T10:30:57.652Z,13.50
2023-04-12T10:32:21.447Z,13.50
2023-04-12T10:33:42.669Z,13.60
2023-04-12T10:35:03.353Z,13.60
2023-04-12T10:36:51.328Z,13.60
2023-04-12T10:38:11.950Z,13.60
2023-04-12T10:39:38.491Z,13.60
2023-04-12T10:41:26.890Z,13.60
2023-04-12T10:42:47.627Z,13.60
2023-04-12T10:44:23.949Z,13.60
2023-04-12T10:45:44.540Z,13.60
2023-04-12T10:47:05.492Z,13.70
2023-04-12T10:48:34.313Z,13.70
2023-04-12T10:50:22.365Z,13.70
2023-04-12T10:52:11.904Z,13.60
2023-04-12T10:53:32.727Z,13.70
2023-04-12T10:54:53.237Z,13.70
2023-04-12T10:56:35.485Z,13.70
2023-04-12T10:57:55.845Z,13.80
2023-04-12T10:59:16.816Z,13.70
2023-04-12T11:01:11.256Z,13.70
2023-04-12T11:02:31.811Z,13.80
2023-04-12T11:04:14.201Z,13.80
2023-04-12T11:05:49.485Z,13.70
2023-04-12T11:07:10.399Z,13.70
2023-04-12T11:08:31.841Z,13.60
2023-04-12T11:09:57.361Z,13.60
2023-04-12T11:11:21.080Z,13.60
2023-04-12T11:12:42.100Z,13.60
2023-04-12T11:14:02.786Z,13.70
2023-04-12T11:15:27.022Z,13.80
2023-04-12T11:17:21.392Z,13.80
2023-04-12T11:18:42.296Z,13.80
2023-04-12T11:20:05.312Z,13.80
2023-04-12T11:21:26.190Z,13.70
2023-04-12T11:22:47.090Z,13.80
2023-04-12T11:24:07.710Z,13.80
2023-04-12T11:25:29.319Z,13.80
2023-04-12T11:26:50.236Z,13.80
2023-04-12T11:28:27.892Z,13.80
2023-04-12T11:29:51.380Z,13.70
2023-04-12T11:31:12.009Z,13.70
2023-04-12T11:32:32.855Z,13.70
2023-04-12T11:33:53.581Z,13.70
2023-04-12T11:35:16.571Z,13.70
2023-04-12T11:36:39.060Z,13.70
2023-04-12T11:38:00.235Z,13.70
2023-04-12T11:39:22.009Z,13.70
2023-04-12T11:40:42.799Z,13.80
2023-04-12T11:42:03.590Z,13.80
2023-04-12T11:43:24.021Z,13.80
2023-04-12T11:44:56.454Z,13.70
2023-04-12T11:46:19.200Z,13.70
2023-04-12T11:47:43.005Z,13.70
2023-04-12T11:49:03.677Z,13.70
2023-04-12T11:50:31.621Z,13.70
2023-04-12T11:52:01.442Z,13.60
2023-04-12T11:53:26.957Z,13.50
2023-04-12T11:54:49.184Z,13.50
2023-04-12T11:56:10.806Z,13.50
2023-04-12T11:57:31.391Z,13.40
2023-04-12T11:58:52.143Z,13.30
2023-04-12T12:00:13.754Z,13.20
2023-04-12T12:01:35.426Z,13.20
2023-04-12T12:03:06.702Z,13.20
2023-04-12T12:04:29.458Z,13.20
2023-04-12T12:05:52.321Z,13.20
2023-04-12T12:07:14.178Z,13.10
2023-04-12T12:08:35.325Z,13.10
2023-04-12T12:09:56.240Z,13.00
2023-04-12T12:11:17.250Z,13.00
2023-04-12T12:12:37.925Z,13.00
2023-04-12T12:13:59.757Z,12.90
2023-04-12T12:15:20.645Z,12.90
2023-04-12T12:16:41.185Z,12.90
2023-04-12T12:18:01.814Z,12.80
2023-04-12T12:19:29.412Z,12.80
2023-04-12T12:20:51.646Z,12.80
2023-04-12T12:22:13.962Z,12.70
2023-04-12T12:23:34.622Z,12.70
2023-04-12T12:24:56.745Z,12.60
2023-04-12T12:26:21.080Z,12.60
2023-04-12T12:27:41.482Z,12.50
2023-04-12T12:29:02.299Z,12.50
2023-04-12T12:30:22.863Z,12.40
2023-04-12T12:31:46.368Z,12.50
2023-04-12T12:33:06.992Z,12.50
2023-04-12T12:34:32.196Z,12.50
2023-04-12T12:35:57.766Z,12.40
2023-04-12T12:37:20.918Z,12.40
2023-04-12T12:38:41.894Z,12.40
2023-04-12T12:40:04.386Z,12.40
2023-04-12T12:41:27.688Z,12.50
2023-04-12T12:42:49.790Z,12.70
2023-04-12T12:44:13.262Z,12.80
2023-04-12T12:45:33.582Z,12.90
2023-04-12T12:47:03.148Z,13.00
2023-04-12T12:48:30.421Z,13.20
2023-04-12T12:49:51.050Z,13.30
2023-04-12T12:51:14.695Z,13.40
2023-04-12T12:52:35.231Z,13.40
2023-04-12T12:53:56.137Z,13.50
2023-04-12T12:55:17.945Z,13.50
2023-04-12T12:56:38.312Z,13.50
2023-04-12T12:59:25.906Z,13.50
2023-04-12T13:00:46.813Z,13.60
2023-04-12T13:02:07.960Z,13.70
2023-04-12T13:03:28.991Z,13.70
2023-04-12T13:04:49.555Z,13.80
2023-04-12T13:06:10.785Z,13.90
2023-04-12T13:07:32.495Z,14.00
2023-04-12T13:08:53.445Z,14.00
2023-04-12T13:10:14.394Z,14.00
2023-04-12T13:11:34.818Z,13.90
2023-04-12T13:12:55.564Z,13.90
2023-04-12T13:14:16.093Z,13.90
2023-04-12T13:15:36.588Z,13.80
2023-04-12T13:16:57.213Z,13.90
2023-04-12T13:18:17.913Z,13.80
2023-04-12T13:19:38.624Z,13.70
2023-04-12T13:20:59.341Z,13.60
2023-04-12T13:22:20.068Z,13.70
2023-04-12T13:23:41.997Z,13.60
2023-04-12T13:25:02.827Z,13.60
2023-04-12T13:26:23.498Z,13.50
2023-04-12T13:27:44.176Z,13.40
2023-04-12T13:29:04.501Z,13.30
2023-04-12T13:30:27.130Z,13.20
2023-04-12T13:31:47.953Z,13.20
2023-04-12T13:33:08.625Z,13.30
2023-04-12T13:34:29.381Z,13.20
2023-04-12T13:35:50.065Z,13.20
2023-04-12T13:37:11.051Z,13.20
2023-04-12T13:38:31.370Z,13.10
2023-04-12T13:39:53.358Z,13.20
2023-04-12T13:41:14.197Z,13.20
2023-04-12T13:42:35.098Z,13.10
2023-04-12T13:43:55.733Z,13.10
2023-04-12T13:45:16.350Z,13.00
2023-04-12T13:46:37.200Z,13.00
2023-04-12T13:47:57.628Z,13.00
2023-04-12T13:49:18.172Z,12.90
2023-04-12T13:50:38.996Z,13.00
2023-04-12T13:51:59.671Z,13.00
2023-04-12T13:53:20.232Z,13.00
2023-04-12T13:54:41.029Z,12.90
2023-04-12T13:56:03.620Z,12.90
2023-04-12T13:57:24.152Z,12.90
2023-04-12T13:58:44.660Z,12.80
2023-04-12T14:00:06.437Z,12.80
2023-04-12T14:01:27.496Z,12.80
2023-04-12T14:02:48.508Z,12.80
2023-04-12T14:04:08.997Z,12.80
2023-04-12T14:05:29.487Z,12.80
2023-04-12T14:06:50.352Z,12.90
2023-04-12T14:08:11.091Z,13.10
2023-04-12T14:09:32.385Z,13.20
2023-04-12T14:10:52.901Z,13.20
2023-04-12T14:12:15.232Z,13.30
2023-04-12T14:13:35.510Z,13.40
2023-04-12T14:14:56.262Z,13.50
2023-04-12T14:16:16.755Z,13.50
2023-04-12T14:17:37.392Z,13.50
2023-04-12T14:18:58.118Z,13.50
2023-04-12T14:20:19.727Z,13.60
2023-04-12T14:21:40.062Z,13.60
2023-04-12T14:23:00.352Z,13.60
2023-04-12T14:24:21.387Z,13.70
2023-04-12T14:25:42.164Z,13.80
2023-04-12T14:27:02.870Z,13.70
2023-04-12T14:28:25.244Z,13.60
2023-04-12T14:29:46.141Z,13.60
2023-04-12T14:31:06.909Z,13.60
2023-04-12T14:32:27.461Z,13.60
2023-04-12T14:33:48.212Z,13.60
2023-04-12T14:35:15.105Z,13.60
2023-04-12T14:36:35.686Z,13.60
2023-04-12T14:37:56.271Z,13.60
2023-04-12T14:39:17.074Z,13.50
2023-04-12T14:40:37.875Z,13.40
2023-04-12T14:41:58.628Z,13.40
2023-04-12T14:43:19.432Z,13.40
2023-04-12T14:44:41.297Z,13.40
2023-04-12T14:46:02.038Z,13.50
2023-04-12T14:47:23.141Z,13.50
2023-04-12T14:48:43.560Z,13.50
2023-04-12T14:50:04.643Z,13.50
2023-04-12T14:51:25.241Z,13.60
2023-04-12T14:52:45.913Z,13.60
2023-04-12T14:54:06.574Z,13.60
2023-04-12T14:55:27.252Z,13.60
2023-04-12T14:56:54.140Z,13.60
2023-04-12T14:58:15.437Z,13.60
2023-04-12T14:59:36.285Z,13.70
2023-04-12T15:00:58.565Z,13.60
2023-04-12T15:02:19.966Z,13.60
2023-04-12T15:03:42.644Z,13.60
2023-04-12T15:05:03.934Z,13.50
2023-04-12T15:06:24.589Z,13.40
2023-04-12T15:07:45.083Z,13.50
2023-04-12T15:09:06.606Z,13.50
2023-04-12T15:10:27.514Z,13.60
2023-04-12T15:11:50.168Z,13.60
2023-04-12T15:13:10.929Z,13.70
2023-04-12T15:14:31.478Z,13.80
2023-04-12T15:15:52.189Z,13.90
2023-04-12T15:17:17.281Z,13.90
2023-04-12T15:18:38.380Z,13.90
2023-04-12T15:19:59.025Z,13.90
2023-04-12T15:21:19.696Z,13.80
2023-04-12T15:22:40.263Z,13.90
2023-04-12T15:24:01.270Z,13.80
2023-04-12T15:25:22.252Z,13.90
2023-04-12T15:26:42.775Z,14.00
2023-04-12T15:28:03.341Z,14.00
2023-04-12T15:29:23.774Z,14.00
2023-04-12T15:30:44.810Z,14.00
2023-04-12T15:32:05.689Z,13.90
2023-04-12T15:33:27.801Z,13.90
2023-04-12T15:34:48.468Z,14.00
2023-04-12T15:36:09.486Z,13.90
2023-04-12T15:37:29.814Z,13.90
2023-04-12T15:38:50.340Z,13.80
2023-04-12T15:40:11.897Z,13.80
2023-04-12T15:41:33.912Z,13.90
2023-04-12T15:42:54.260Z,13.80
2023-04-12T15:44:14.937Z,13.80
2023-04-12T15:45:35.439Z,13.80
2023-04-12T15:47:07.860Z,13.80
2023-04-12T15:48:32.854Z,13.80
2023-04-12T15:49:53.554Z,13.90
2023-04-12T15:51:14.107Z,14.00
2023-04-12T15:52:34.720Z,14.20
2023-04-12T15:53:55.454Z,14.30
2023-04-12T15:55:16.574Z,14.40
2023-04-12T15:56:37.184Z,14.50
2023-04-12T15:57:58.118Z,14.40
2023-04-12T15:59:19.319Z,14.50
2023-04-12T16:00:40.391Z,14.60
2023-04-12T16:02:01.098Z,14.70
2023-04-12T16:03:22.144Z,14.80
2023-04-12T16:04:44.585Z,14.90
2023-04-12T16:06:05.861Z,15.00
2023-04-12T16:07:26.524Z,15.10
2023-04-12T16:08:47.793Z,15.10
2023-04-12T16:10:09.414Z,15.30
2023-04-12T16:11:30.221Z,15.40
2023-04-12T16:12:52.008Z,15.50
2023-04-12T16:14:12.585Z,15.50
2023-04-12T16:15:33.507Z,15.60
2023-04-12T16:16:54.236Z,15.70
2023-04-12T16:18:16.857Z,15.70
2023-04-12T16:19:37.268Z,15.60
2023-04-12T16:20:59.237Z,15.60
2023-04-12T16:22:19.908Z,15.60
2023-04-12T16:23:40.774Z,15.40
2023-04-12T16:25:01.418Z,15.30
2023-04-12T16:26:22.515Z,15.20
2023-04-12T16:27:43.185Z,15.20
2023-04-12T16:29:03.861Z,15.10
2023-04-12T16:30:24.628Z,15.10
2023-04-12T16:31:45.515Z,15.10
2023-04-12T16:33:06.006Z,15.10
2023-04-12T16:34:26.617Z,15.10
2023-04-12T16:35:47.200Z,15.20
2023-04-12T16:37:08.962Z,15.30
2023-04-12T16:38:29.763Z,15.30
2023-04-12T16:39:50.231Z,15.30
2023-04-12T16:41:12.084Z,15.30
2023-04-12T16:42:32.776Z,15.30
2023-04-12T16:43:53.286Z,15.30
2023-04-12T16:45:13.861Z,15.30
2023-04-12T16:46:35.138Z,15.40
2023-04-12T16:47:55.942Z,15.40
2023-04-12T16:49:19.049Z,15.50
2023-04-12T16:50:40.176Z,15.50
2023-04-12T16:52:00.610Z,15.60
2023-04-12T16:53:22.885Z,15.70
2023-04-12T16:54:43.571Z,15.70
2023-04-12T16:56:04.288Z,15.80
2023-04-12T16:57:25.074Z,15.90
2023-04-12T16:58:45.372Z,16.00
2023-04-12T17:00:07.861Z,16.00
2023-04-12T17:01:28.461Z,15.90
2023-04-12T17:02:50.121Z,15.90
2023-04-12T17:04:10.690Z,15.80
2023-04-12T17:05:32.744Z,15.60
2023-04-12T17:06:53.839Z,15.50
2023-04-12T17:08:14.258Z,15.50
2023-04-12T17:09:36.286Z,15.40
2023-04-12T17:10:56.746Z,15.30
2023-04-12T17:12:17.361Z,15.20
2023-04-12T17:13:38.244Z,15.10
2023-04-12T17:14:58.908Z,15.00
2023-04-12T17:16:19.557Z,14.90
2023-04-12T17:17:40.030Z,14.70
2023-04-12T17:19:01.036Z,14.60
2023-04-12T17:20:22.340Z,14.40
2023-04-12T17:21:42.828Z,14.30
2023-04-12T17:23:03.756Z,14.20
2023-04-12T17:24:24.807Z,14.20
2023-04-12T17:25:46.626Z,14.20
2023-04-12T17:27:07.173Z,14.10
2023-04-12T17:28:27.900Z,14.00
2023-04-12T17:29:48.741Z,14.00
2023-04-12T17:31:09.394Z,13.90
2023-04-12T17:32:30.205Z,14.00
2023-04-12T17:33:50.981Z,14.00
2023-04-12T17:35:11.637Z,14.00
2023-04-12T17:36:32.141Z,13.90
2023-04-12T17:37:53.007Z,13.80